createdAt,value
2023-04-12T00:00:24.947Z,2.25
2023-04-12T00:02:54.531Z,1.08
2023-04-12T00:05:23.307Z,1.35
2023-04-12T00:07:55.115Z,1.10
2023-04-12T00:10:26.661Z,1.40
2023-04-12T00:12:56.498Z,1.58
2023-04-12T00:17:51.793Z,0.95
2023-04-12T00:20:21.683Z,0.90
2023-04-12T00:25:20.069Z,1.20
2023-04-12T00:27:51.255Z,1.02
2023-04-12T00:30:24.042Z,1.00
2023-04-12T00:32:52.283Z,1.10
2023-04-12T00:35:20.225Z,0.88
2023-04-12T00:37:48.381Z,1.17
2023-04-12T00:40:16.445Z,0.73
2023-04-12T00:42:44.408Z,0.93
2023-04-12T00:45:14.086Z,0.70
2023-04-12T00:47:43.680Z,0.57
2023-04-12T00:50:12.531Z,0.93
2023-04-12T00:52:40.136Z,0.67
2023-04-12T00:55:14.490Z,0.60
2023-04-12T00:57:42.930Z,0.65
2023-04-12T01:00:13.450Z,0.75
2023-04-12T01:02:47.849Z,0.45
2023-04-12T01:05:24.659Z,0.52
2023-04-12T01:08:33.939Z,0.50
2023-04-12T01:11:27.173Z,0.40
2023-04-12T01:14:04.946Z,1.15
2023-04-12T01:16:42.137Z,0.32
2023-04-12T01:19:37.033Z,0.50
2023-04-12T01:22:26.136Z,0.95
2023-04-12T01:25:29.427Z,0.77
2023-04-12T01:28:04.972Z,1.00
2023-04-12T01:30:36.072Z,1.02
2023-04-12T01:33:07.134Z,0.73
2023-04-12T01:35:35.476Z,0.30
2023-04-12T01:38:04.705Z,0.75
2023-04-12T01:40:32.869Z,0.25
2023-04-12T01:43:16.804Z,0.30
2023-04-12T01:45:45.152Z,0.65
2023-04-12T01:48:13.685Z,0.47
2023-04-12T01:51:05.338Z,0.60
2023-04-12T01:53:58.216Z,0.50
2023-04-12T01:56:31.815Z,0.57
2023-04-12T01:59:02.698Z,0.50
2023-04-12T02:01:31.205Z,0.40
2023-04-12T02:04:01.454Z,0.68
2023-04-12T02:06:32.826Z,0.50
2023-04-12T02:09:06.475Z,0.47
2023-04-12T02:11:34.777Z,0.25
2023-04-12T02:14:06.595Z,0.90
2023-04-12T02:16:39.126Z,0.10
2023-04-12T02:19:10.996Z,0.38
2023-04-12T02:21:46.230Z,0.40
2023-04-12T02:24:14.469Z,0.63
2023-04-12T02:26:45.455Z,0.70
2023-04-12T02:29:13.650Z,0.35
2023-04-12T02:31:42.263Z,0.60
2023-04-12T02:34:13.759Z,0.38
2023-04-12T02:36:50.747Z,0.20
2023-04-12T02:39:22.471Z,0.73
2023-04-12T02:41:51.975Z,1.13
2023-04-12T02:44:21.678Z,0.65
2023-04-12T02:47:06.837Z,1.63
2023-04-12T02:49:38.946Z,1.90
2023-04-12T02:52:11.533Z,2.08
2023-04-12T02:54:57.257Z,2.15
2023-04-12T02:57:25.399Z,1.70
2023-04-12T02:59:55.678Z,1.95
2023-04-12T03:02:29.726Z,1.60
2023-04-12T03:05:05.677Z,1.67
2023-04-12T03:07:42.597Z,1.13
2023-04-12T03:10:12.097Z,1.75
2023-04-12T03:12:55.576Z,2.00
2023-04-12T03:15:33.072Z,1.52
2023-04-12T03:18:01.139Z,2.20
2023-04-12T03:20:31.754Z,1.25
2023-04-12T03:23:03.626Z,1.48
2023-04-12T03:28:16.358Z,1.08
2023-04-12T03:30:50.101Z,0.73
2023-04-12T03:33:20.198Z,0.55
2023-04-12T03:35:48.101Z,0.63
2023-04-12T03:38:25.067Z,0.80
2023-04-12T03:40:55.697Z,0.68
2023-04-12T03:43:36.448Z,0.85
2023-04-12T03:46:08.905Z,1.45
2023-04-12T03:48:36.883Z,0.90
2023-04-12T03:51:12.387Z,0.80
2023-04-12T03:53:47.992Z,1.15
2023-04-12T03:56:17.765Z,0.60
2023-04-12T03:58:49.270Z,0.73
2023-04-12T04:01:18.261Z,0.90
2023-04-12T04:03:47.137Z,0.60
2023-04-12T04:06:25.201Z,0.60
2023-04-12T04:08:56.005Z,0.68
2023-04-12T04:11:27.737Z,0.52
2023-04-12T04:14:04.614Z,1.25
2023-04-12T04:16:32.989Z,0.85
2023-04-12T04:19:06.124Z,0.60
2023-04-12T04:21:34.319Z,0.88
2023-04-12T04:24:12.174Z,0.40
2023-04-12T04:26:45.716Z,0.57
2023-04-12T04:29:26.025Z,0.30
2023-04-12T04:32:04.367Z,0.47
2023-04-12T04:34:33.318Z,0.55
2023-04-12T04:37:10.575Z,1.15
2023-04-12T04:39:40.997Z,0.40
2023-04-12T04:42:09.993Z,0.47
2023-04-12T04:44:42.923Z,0.40
2023-04-12T04:47:12.451Z,0.25
2023-04-12T04:49:43.769Z,0.95
2023-04-12T04:52:24.411Z,0.30
2023-04-12T04:54:57.949Z,0.77
2023-04-12T04:57:31.817Z,0.70
2023-04-12T05:00:01.749Z,0.28
2023-04-12T05:02:29.092Z,0.20
2023-04-12T05:05:00.195Z,0.20
2023-04-12T05:07:29.454Z,0.35
2023-04-12T05:09:57.050Z,0.45
2023-04-12T05:12:31.787Z,0.22
2023-04-12T05:15:11.092Z,0.60
2023-04-12T05:17:41.375Z,0.52
2023-04-12T05:20:10.949Z,0.43
2023-04-12T05:22:42.314Z,1.25
2023-04-12T05:25:10.235Z,1.10
2023-04-12T05:27:47.321Z,0.80
2023-04-12T05:30:17.383Z,1.52
2023-04-12T05:32:51.058Z,1.38
2023-04-12T05:35:21.951Z,1.70
2023-04-12T05:37:54.148Z,0.80
2023-04-12T05:40:25.157Z,1.00
2023-04-12T05:42:54.337Z,0.80
2023-04-12T05:45:24.432Z,1.10
2023-04-12T05:47:57.813Z,0.75
2023-04-12T05:50:26.721Z,0.65
2023-04-12T05:52:55.923Z,1.90
2023-04-12T05:55:37.968Z,0.50
2023-04-12T05:58:14.897Z,0.65
2023-04-12T06:00:42.778Z,0.70
2023-04-12T06:03:11.824Z,0.98
2023-04-12T06:05:40.148Z,0.50
2023-04-12T06:08:13.076Z,0.70
2023-04-12T06:10:42.627Z,0.70
2023-04-12T06:13:10.039Z,1.10
2023-04-12T06:15:42.696Z,0.50
2023-04-12T06:18:10.160Z,0.60
2023-04-12T06:20:39.533Z,1.10
2023-04-12T06:23:06.776Z,0.73
2023-04-12T06:25:34.823Z,0.93
2023-04-12T06:28:02.213Z,0.85
2023-04-12T06:30:29.677Z,0.60
2023-04-12T06:32:57.075Z,0.70
2023-04-12T06:35:24.172Z,0.60
2023-04-12T06:37:51.492Z,0.47
2023-04-12T06:40:18.585Z,0.50
2023-04-12T06:42:45.748Z,0.50
2023-04-12T06:45:12.722Z,0.55
2023-04-12T06:47:39.526Z,0.47
2023-04-12T06:50:07.170Z,0.75
2023-04-12T06:52:34.323Z,0.93
2023-04-12T06:55:01.239Z,0.57
2023-04-12T06:57:28.081Z,0.60
2023-04-12T06:59:55.021Z,0.73
2023-04-12T07:02:24.890Z,0.65
2023-04-12T07:04:54.966Z,0.45
2023-04-12T07:07:22.142Z,0.65
2023-04-12T07:09:48.935Z,0.93
2023-04-12T07:12:15.845Z,0.80
2023-04-12T07:14:44.602Z,1.42
2023-04-12T07:17:11.767Z,0.85
2023-04-12T07:19:39.420Z,1.45
2023-04-12T07:22:06.136Z,1.45
2023-04-12T07:24:32.888Z,1.45
2023-04-12T07:26:59.802Z,0.82
2023-04-12T07:29:26.715Z,1.35
2023-04-12T07:31:53.588Z,0.95
2023-04-12T07:34:20.820Z,0.63
2023-04-12T07:36:47.815Z,0.77
2023-04-12T07:39:15.003Z,0.85
2023-04-12T07:41:49.463Z,0.80
2023-04-12T07:44:16.285Z,0.70
2023-04-12T07:46:45.091Z,2.28
2023-04-12T07:49:11.871Z,0.77
2023-04-12T07:51:38.653Z,0.85
2023-04-12T07:54:05.533Z,0.80
2023-04-12T07:56:36.212Z,0.77
2023-04-12T07:59:02.998Z,0.90
2023-04-12T08:01:30.425Z,0.77
2023-04-12T08:03:57.478Z,0.93
2023-04-12T08:06:25.104Z,0.70
2023-04-12T08:08:52.932Z,0.70
2023-04-12T08:11:19.601Z,0.85
2023-04-12T08:13:46.446Z,0.90
2023-04-12T08:16:13.177Z,0.55
2023-04-12T08:18:39.987Z,0.70
2023-04-12T08:21:07.348Z,0.40
2023-04-12T08:23:34.158Z,0.73
2023-04-12T08:26:03.727Z,1.02
2023-04-12T08:28:31.354Z,0.60
2023-04-12T08:30:59.253Z,1.00
2023-04-12T08:33:26.765Z,0.82
2023-04-12T08:35:53.951Z,0.90
2023-04-12T08:38:25.379Z,0.80
2023-04-12T08:40:58.018Z,1.05
2023-04-12T08:43:29.034Z,1.42
2023-04-12T08:45:58.591Z,0.90
2023-04-12T08:48:26.634Z,0.70
2023-04-12T08:50:54.932Z,0.70
2023-04-12T08:53:21.669Z,0.77
2023-04-12T08:55:49.527Z,1.00
2023-04-12T08:58:16.687Z,2.65
2023-04-12T09:00:45.396Z,2.25
2023-04-12T09:03:12.352Z,2.78
2023-04-12T09:05:39.206Z,1.10
2023-04-12T09:08:06.048Z,1.23
2023-04-12T09:10:38.104Z,1.60
2023-04-12T09:13:06.188Z,0.77
2023-04-12T09:15:36.237Z,1.23
2023-04-12T09:18:04.397Z,1.30
2023-04-12T09:20:31.317Z,1.20
2023-04-12T09:22:58.920Z,1.08
2023-04-12T09:25:45.733Z,1.02
2023-04-12T09:28:28.176Z,1.10
2023-04-12T09:30:57.507Z,0.98
2023-04-12T09:33:41.949Z,0.68
2023-04-12T09:36:13.784Z,1.25
2023-04-12T09:38:43.112Z,1.98
2023-04-12T09:41:27.558Z,1.50
2023-04-12T09:43:56.509Z,1.13
2023-04-12T09:46:24.375Z,1.25
2023-04-12T09:48:57.465Z,1.48
2023-04-12T09:51:32.964Z,0.90
2023-04-12T09:54:06.931Z,1.40
2023-04-12T09:56:35.951Z,1.63
2023-04-12T09:59:05.380Z,2.17
2023-04-12T10:01:39.606Z,1.23
2023-04-12T10:04:09.000Z,1.02
2023-04-12T10:06:37.458Z,0.52
2023-04-12T10:09:05.635Z,1.20
2023-04-12T10:11:34.353Z,1.10
2023-04-12T10:14:06.980Z,1.85
2023-04-12T10:16:34.787Z,1.40
2023-04-12T10:19:03.891Z,1.63
2023-04-12T10:21:32.312Z,2.15
2023-04-12T10:23:59.822Z,0.98
2023-04-12T10:26:27.148Z,1.77
2023-04-12T10:29:23.746Z,1.20
2023-04-12T10:31:51.311Z,1.23
2023-04-12T10:34:25.336Z,2.90
2023-04-12T10:36:58.928Z,1.50
2023-04-12T10:39:43.342Z,1.55
2023-04-12T10:42:28.264Z,1.40
2023-04-12T10:45:34.239Z,1.60
2023-04-12T10:48:02.060Z,1.73
2023-04-12T10:50:31.236Z,1.77
2023-04-12T10:53:15.496Z,1.20
2023-04-12T10:55:45.763Z,1.23
2023-04-12T10:58:50.221Z,0.77
2023-04-12T11:01:20.852Z,1.40
2023-04-12T11:04:10.133Z,0.82
2023-04-12T11:07:05.175Z,1.23
2023-04-12T11:09:51.039Z,0.63
2023-04-12T11:12:27.867Z,0.70
2023-04-12T11:15:01.419Z,1.00
2023-04-12T11:17:57.683Z,0.47
2023-04-12T11:22:54.020Z,0.47
2023-04-12T11:25:23.106Z,1.83
2023-04-12T11:27:51.536Z,0.70
2023-04-12T11:30:19.824Z,1.55
2023-04-12T11:32:47.279Z,0.80
2023-04-12T11:35:20.470Z,0.50
2023-04-12T11:37:50.886Z,0.50
2023-04-12T11:40:22.562Z,0.88
2023-04-12T11:42:49.514Z,0.73
2023-04-12T11:45:20.423Z,0.60
2023-04-12T11:47:51.383Z,1.02
2023-04-12T11:50:30.872Z,0.50
2023-04-12T11:53:11.287Z,0.80
2023-04-12T11:55:38.279Z,1.42
2023-04-12T11:58:04.970Z,0.70
2023-04-12T12:00:32.246Z,0.80
2023-04-12T12:03:07.713Z,0.95
2023-04-12T12:05:38.441Z,0.55
2023-04-12T12:08:07.891Z,0.52
2023-04-12T12:10:46.450Z,1.10
2023-04-12T12:13:23.699Z,0.95
2023-04-12T12:15:52.895Z,1.35
2023-04-12T12:18:27.401Z,1.00
2023-04-12T12:20:55.767Z,0.93
2023-04-12T12:23:30.843Z,1.20
2023-04-12T12:26:14.424Z,1.10
2023-04-12T12:28:52.144Z,0.38
2023-04-12T12:31:23.325Z,0.30
2023-04-12T12:33:57.473Z,0.70
2023-04-12T12:36:39.710Z,0.43
2023-04-12T12:39:20.247Z,1.02
2023-04-12T12:41:59.049Z,0.45
2023-04-12T12:44:25.805Z,0.60
2023-04-12T12:47:00.586Z,0.43
2023-04-12T12:49:33.200Z,0.98
2023-04-12T12:51:59.958Z,0.30
2023-04-12T12:59:25.467Z,0.95
2023-04-12T13:01:52.797Z,0.52
2023-04-12T13:04:19.751Z,1.02
2023-04-12T13:06:46.631Z,0.47
2023-04-12T13:09:13.844Z,0.60
2023-04-12T13:11:41.332Z,0.40
2023-04-12T13:14:08.087Z,1.10
2023-04-12T13:16:35.003Z,0.80
2023-04-12T13:19:02.309Z,0.80
2023-04-12T13:21:29.158Z,1.02
2023-04-12T13:23:55.936Z,3.53
2023-04-12T13:26:25.677Z,0.82
2023-04-12T13:28:54.551Z,0.60
2023-04-12T13:31:21.316Z,1.17
2023-04-12T13:33:49.270Z,2.55
2023-04-12T13:36:16.126Z,2.92
2023-04-12T13:38:43.323Z,1.67
2023-04-12T13:41:10.047Z,1.23
2023-04-12T13:43:36.704Z,0.70
2023-04-12T13:46:04.729Z,1.40
2023-04-12T13:48:31.688Z,0.68
2023-04-12T13:50:58.910Z,0.80
2023-04-12T13:53:25.961Z,0.95
2023-04-12T13:55:52.728Z,1.27
2023-04-12T13:58:19.531Z,0.93
2023-04-12T14:00:47.450Z,1.63
2023-04-12T14:03:17.397Z,0.70
2023-04-12T14:05:48.738Z,0.38
2023-04-12T14:08:15.563Z,0.43
2023-04-12T14:10:42.516Z,0.10
2023-04-12T14:13:09.528Z,0.70
2023-04-12T14:15:36.164Z,0.50
2023-04-12T14:18:03.080Z,1.38
2023-04-12T14:20:30.159Z,0.10
2023-04-12T14:22:57.073Z,0.10
2023-04-12T14:25:23.943Z,0.10
2023-04-12T14:27:52.012Z,0.00
2023-04-12T14:30:19.178Z,0.15
2023-04-12T14:32:47.621Z,0.03
2023-04-12T14:35:14.636Z,0.03
2023-04-12T14:37:41.725Z,0.00
2023-04-12T14:40:08.840Z,0.10
2023-04-12T14:42:35.718Z,0.20
2023-04-12T14:45:02.519Z,0.08
2023-04-12T14:47:29.346Z,0.10
2023-04-12T14:49:56.287Z,0.10
2023-04-12T14:52:24.365Z,0.00
2023-04-12T14:54:51.544Z,0.10
2023-04-12T14:57:18.265Z,0.10
2023-04-12T14:59:45.017Z,0.10
2023-04-12T15:02:12.107Z,0.10
2023-04-12T15:04:38.835Z,0.10
2023-04-12T15:07:05.765Z,0.20
2023-04-12T15:09:34.579Z,0.10
2023-04-12T15:12:01.495Z,5.17
2023-04-12T15:14:29.018Z,0.32
2023-04-12T15:16:55.821Z,0.00
2023-04-12T15:19:23.918Z,2.42
2023-04-12T15:21:53.031Z,0.00
2023-04-12T15:24:20.017Z,0.10
2023-04-12T15:26:48.639Z,0.20
2023-04-12T15:29:16.728Z,0.13
2023-04-12T15:31:43.913Z,0.00
2023-04-12T15:34:14.084Z,0.00
2023-04-12T15:36:42.902Z,0.00
2023-04-12T15:39:11.412Z,0.00
2023-04-12T15:41:39.979Z,0.00
2023-04-12T15:44:08.911Z,0.08
2023-04-12T15:46:36.902Z,0.00
2023-04-12T15:49:06.903Z,0.08
2023-04-12T15:51:35.792Z,0.00
2023-04-12T15:54:02.819Z,0.00
2023-04-12T15:56:31.495Z,0.00
2023-04-12T15:58:59.039Z,0.15
2023-04-12T16:01:26.269Z,0.00
2023-04-12T16:03:53.964Z,0.00
2023-04-12T16:06:21.214Z,0.00
2023-04-12T16:08:53.552Z,0.00
2023-04-12T16:11:24.194Z,0.00
2023-04-12T16:13:51.518Z,0.00
2023-04-12T16:16:21.154Z,0.00
2023-04-12T16:18:48.563Z,1.48
2023-04-12T16:21:19.978Z,0.00
2023-04-12T16:23:48.305Z,0.00
2023-04-12T16:26:21.722Z,0.10
2023-04-12T16:28:55.380Z,0.00
2023-04-12T16:31:25.450Z,0.20
2023-04-12T16:33:52.753Z,0.43
2023-04-12T16:36:22.267Z,0.68
2023-04-12T16:38:49.766Z,0.00
2023-04-12T16:41:18.688Z,0.20
2023-04-12T16:43:45.856Z,0.00
2023-04-12T16:46:13.326Z,0.20
2023-04-12T16:48:41.259Z,0.00
2023-04-12T16:51:09.617Z,0.00
2023-04-12T16:53:37.485Z,0.00
2023-04-12T16:56:04.663Z,0.00
2023-04-12T16:58:31.667Z,0.00
2023-04-12T17:01:00.917Z,0.00
2023-04-12T17:03:28.757Z,0.00
2023-04-12T17:05:55.625Z,0.20
2023-04-12T17:08:22.806Z,0.00
2023-04-12T17:10:49.696Z,0.00
2023-04-12T17:13:20.310Z,0.15
2023-04-12T17:15:50.241Z,0.40
2023-04-12T17:20:44.502Z,0.00
2023-04-12T17:23:11.556Z,0.00
2023-04-12T17:25:39.645Z,0.00
2023-04-12T17:28:08.545Z,0.00
2023-04-12T17:30:35.351Z,0.00
2023-04-12T17:33:03.088Z,0.00
2023-04-12T17:35:29.876Z,0.00
2023-04-12T17:37:56.824Z,0.00
2023-04-12T17:40:23.758Z,0.00
2023-04-12T17:42:50.557Z,0.00
2023-04-12T17:45:18.494Z,0.00
2023-04-12T17:47:45.312Z,0.00
2023-04-12T17:50:12.662Z,0.00
2023-04-12T17:52:39.732Z,0.00
2023-04-12T17:55:12.818Z,0.25
2023-04-12T17:57:39.593Z,0.15
2023-04-12T18:00:11.548Z,0.25
2023-04-12T18:02:44.205Z,0.20
2023-04-12T18:07:39.934Z,0.05
2023-04-12T18:10:09.024Z,0.10
2023-04-12T18:12:36.260Z,0.28
2023-04-12T18:15:05.698Z,0.40
2023-04-12T18:17:32.444Z,0.00
2023-04-12T18:20:00.624Z,0.10
2023-04-12T18:22:29.536Z,2.25
2023-04-12T18:24:56.507Z,4.75
2023-04-12T18:27:23.393Z,5.65
2023-04-12T18:29:50.056Z,8.30
2023-04-12T18:32:17.180Z,3.25
2023-04-12T18:34:43.850Z,4.28
2023-04-12T18:37:10.834Z,3.80
2023-04-12T18:39:37.510Z,0.22
2023-04-12T18:42:04.411Z,0.77
2023-04-12T18:44:31.379Z,0.70
2023-04-12T18:46:58.235Z,0.40
2023-04-12T18:49:26.006Z,0.20
2023-04-12T18:51:53.836Z,0.20
2023-04-12T18:54:21.167Z,0.10
2023-04-12T18:56:47.931Z,0.10
2023-04-12T18:59:17.649Z,0.20
2023-04-12T19:01:45.828Z,0.10
2023-04-12T19:04:16.432Z,0.38
2023-04-12T19:06:44.587Z,1.13
2023-04-12T19:09:11.641Z,0.88
2023-04-12T19:11:38.282Z,1.15
2023-04-12T19:14:05.498Z,2.53
2023-04-12T19:16:32.819Z,1.02
2023-04-12T19:19:00.385Z,0.05
2023-04-12T19:21:31.656Z,0.55
2023-04-12T19:23:58.671Z,0.15
2023-04-12T19:26:26.143Z,0.00
2023-04-12T19:28:55.665Z,0.20
2023-04-12T19:33:51.231Z,0.00
2023-04-12T19:36:18.389Z,0.28
2023-04-12T19:38:47.859Z,0.10
2023-04-12T19:41:16.282Z,0.10
2023-04-12T19:43:43.200Z,0.08
2023-04-12T19:46:10.270Z,0.10
2023-04-12T19:48:37.884Z,0.00
2023-04-12T19:51:05.491Z,0.00
2023-04-12T19:53:33.401Z,0.10
2023-04-12T19:56:00.864Z,0.10
2023-04-12T19:58:27.653Z,0.00
2023-04-12T20:00:55.024Z,0.20
2023-04-12T20:03:22.748Z,0.28
2023-04-12T20:05:51.721Z,0.10
2023-04-12T20:08:18.608Z,0.47
2023-04-12T20:10:45.502Z,0.25
2023-04-12T20:13:15.348Z,0.10
2023-04-12T20:15:45.291Z,0.15
2023-04-12T20:18:13.596Z,0.17
2023-04-12T20:20:44.196Z,0.00
2023-04-12T20:23:14.417Z,0.08
2023-04-12T20:25:42.645Z,0.10
2023-04-12T20:28:10.073Z,0.00
2023-04-12T20:30:37.255Z,0.30
2023-04-12T20:33:04.219Z,0.55
2023-04-12T20:35:33.146Z,0.20
2023-04-12T20:38:00.298Z,0.10
2023-04-12T20:40:29.876Z,0.35
2023-04-12T20:45:23.976Z,0.00
2023-04-12T20:47:51.216Z,0.10
2023-04-12T20:50:18.882Z,0.10
2023-04-12T20:52:46.410Z,0.00
2023-04-12T20:55:14.245Z,0.45
2023-04-12T20:57:41.255Z,0.00
2023-04-12T21:00:18.948Z,0.00
2023-04-12T21:02:46.800Z,0.00
2023-04-12T21:05:17.404Z,0.00
2023-04-12T21:07:46.609Z,0.00
2023-04-12T21:10:15.293Z,0.20
2023-04-12T21:12:44.959Z,0.00
2023-04-12T21:15:13.126Z,0.00
2023-04-12T21:17:40.904Z,0.00
2023-04-12T21:20:13.277Z,0.10
2023-04-12T21:22:42.133Z,0.25
2023-04-12T21:25:15.094Z,0.10
2023-04-12T21:27:43.662Z,0.00
2023-04-12T21:30:14.078Z,0.10
2023-04-12T21:32:42.862Z,0.08
2023-04-12T21:35:12.112Z,0.10
2023-04-12T21:38:00.328Z,0.10
2023-04-12T21:40:27.411Z,0.10
2023-04-12T21:42:54.167Z,0.08
2023-04-12T21:45:21.335Z,0.20
2023-04-12T21:47:48.812Z,0.22
2023-04-12T21:50:18.382Z,0.10
2023-04-12T21:52:47.268Z,0.03
2023-04-12T21:55:14.114Z,0.10
2023-04-12T21:57:41.942Z,0.20
2023-04-12T22:00:10.150Z,0.00
2023-04-12T22:02:40.753Z,0.00
2023-04-12T22:05:13.552Z,0.00
2023-04-12T22:07:41.048Z,0.00
2023-04-12T22:10:20.396Z,0.00
2023-04-12T22:12:56.462Z,0.00
2023-04-12T22:15:23.377Z,0.30
2023-04-12T22:17:50.455Z,0.00
2023-04-12T22:20:17.815Z,0.10
2023-04-12T22:22:44.646Z,0.00
2023-04-12T22:25:14.841Z,0.00
2023-04-12T22:27:48.577Z,0.10
2023-04-12T22:30:23.740Z,0.00
2023-04-12T22:33:02.586Z,0.00
2023-04-12T22:35:35.415Z,0.00
2023-04-12T22:38:02.966Z,0.15
2023-04-12T22:40:32.552Z,0.00
2023-04-12T22:42:59.682Z,0.10
2023-04-12T22:45:28.763Z,0.17
2023-04-12T22:47:55.812Z,0.80
2023-04-12T22:50:24.995Z,0.05
2023-04-12T22:52:57.766Z,0.13
2023-04-12T22:55:30.131Z,0.00
2023-04-12T22:58:05.726Z,0.10
2023-04-12T23:00:41.481Z,0.00
2023-04-12T23:03:10.921Z,0.00
2023-04-12T23:05:48.330Z,0.00
2023-04-12T23:08:20.625Z,0.00
2023-04-12T23:10:53.630Z,0.00
2023-04-12T23:13:29.461Z,0.00
2023-04-12T23:15:57.924Z,0.00
2023-04-12T23:18:28.650Z,0.00
2023-04-12T23:20:55.886Z,0.00
2023-04-12T23:23:26.654Z,0.00
2023-04-12T23:25:57.923Z,0.00
2023-04-12T23:28:26.737Z,0.00
2023-04-12T23:30:59.769Z,0.00
2023-04-12T23:33:27.013Z,0.00
2023-04-12T23:35:56.217Z,0.00
2023-04-12T23:38:26.291Z,0.00
2023-04-12T23:40:56.659Z,0.10
2023-04-12T23:43:25.485Z,0.00
2023-04-12T23:45:53.496Z,0.00
2023-04-12T23:48:21.222Z,2.10
2023-04-12T23:50:48.549Z,0.00
2023-04-12T23:53:16.917Z,0.00
2023-04-12T23:55:47.762Z,0.00
2023-04-12T23:58:18.137Z,0.00
